Time;durP1;ratioP1;P1;durP2;ratioP2;P2;SDS_P1;SDS_P2;PMS_P1;PMS_P2;Temp;Humidity;BMP_temperature;BMP_pressure;BME280_temperature;BME280_humidity;BME280_pressure;Samples;Min_cycle;Max_cycle;Signal;HPM_P1;HPM_P2
2023/12/27 00:01:47;;;;;;;20.50;7.47;;;2.90;99.90;;;;;;5092324;28;20123;-69
2023/12/27 00:04:13;;;;;;;19.05;6.63;;;2.90;99.90;;;;;;5064509;28;20040;-69
2023/12/27 00:06:39;;;;;;;20.73;6.30;;;2.90;99.90;;;;;;5068459;28;20048;-68
2023/12/27 00:09:06;;;;;;;20.13;7.22;;;2.90;99.90;;;;;;5074190;28;20040;-68
2023/12/27 00:11:35;;;;;;;19.20;6.57;;;2.90;99.90;;;;;;5079279;28;20055;-68
2023/12/27 00:14:00;;;;;;;19.58;6.82;;;2.80;99.90;;;;;;5091215;28;20131;-67
2023/12/27 00:16:26;;;;;;;23.85;6.85;;;2.70;99.90;;;;;;5091858;28;20142;-69
2023/12/27 00:18:51;;;;;;;16.77;6.53;;;2.70;99.90;;;;;;5064248;28;20039;-69
2023/12/27 00:21:17;;;;;;;19.80;6.70;;;2.70;99.90;;;;;;5087984;28;20047;-67
2023/12/27 00:23:43;;;;;;;16.75;6.40;;;2.80;99.90;;;;;;5073069;28;20044;-68
2023/12/27 00:26:08;;;;;;;17.98;6.43;;;2.90;99.90;;;;;;5059510;28;20032;-68
2023/12/27 00:28:34;;;;;;;20.33;6.40;;;2.80;99.90;;;;;;5080956;28;20036;-67
2023/12/27 00:30:59;;;;;;;18.02;6.38;;;2.80;99.90;;;;;;5067966;28;20050;-69
2023/12/27 00:33:25;;;;;;;21.17;6.45;;;2.80;99.90;;;;;;5091171;28;20491;-68
2023/12/27 00:35:50;;;;;;;22.45;6.22;;;2.80;99.90;;;;;;5086208;28;20056;-69
2023/12/27 00:38:16;;;;;;;24.67;6.72;;;2.80;99.90;;;;;;5075701;28;20037;-69
2023/12/27 00:40:41;;;;;;;23.15;6.68;;;2.70;99.90;;;;;;5091172;28;20378;-69
2023/12/27 00:43:07;;;;;;;28.40;6.25;;;2.80;99.90;;;;;;5081486;28;20410;-68
2023/12/27 00:45:32;;;;;;;15.20;6.05;;;2.50;99.90;;;;;;5084344;28;20032;-68
2023/12/27 00:47:58;;;;;;;12.93;5.50;;;2.40;99.90;;;;;;5060941;28;20040;-69
2023/12/27 00:50:23;;;;;;;16.75;6.05;;;2.30;99.90;;;;;;5057420;28;20102;-69
2023/12/27 00:52:49;;;;;;;18.42;6.22;;;2.30;99.90;;;;;;5081099;28;20040;-68
2023/12/27 00:55:14;;;;;;;238.75;12.85;;;2.30;99.90;;;;;;5084302;28;20028;-69
2023/12/27 00:57:40;;;;;;;13.43;5.82;;;2.20;99.90;;;;;;5084190;28;20047;-68
2023/12/27 01:00:06;;;;;;;15.35;5.43;;;2.10;99.90;;;;;;5079613;28;20043;-69
2023/12/27 01:02:34;;;;;;;17.60;5.75;;;2.10;99.90;;;;;;5053411;28;20040;-68
2023/12/27 01:05:00;;;;;;;27.05;6.38;;;2.10;99.90;;;;;;5079475;28;20040;-69
2023/12/27 01:07:26;;;;;;;9.60;4.90;;;2.10;99.90;;;;;;5062520;28;20048;-67
2023/12/27 01:09:51;;;;;;;17.27;5.32;;;2.10;99.90;;;;;;5083785;28;20174;-68
2023/12/27 01:12:17;;;;;;;19.95;5.40;;;2.10;99.90;;;;;;5082139;28;20032;-68
2023/12/27 01:14:43;;;;;;;50.78;5.75;;;2.10;99.90;;;;;;5081543;28;20579;-69
2023/12/27 01:17:09;;;;;;;34.83;5.88;;;1.90;99.90;;;;;;5058861;28;20395;-69
2023/12/27 01:19:35;;;;;;;43.55;5.43;;;1.90;99.90;;;;;;5081347;28;20188;-69
2023/12/27 01:22:01;;;;;;;33.83;5.45;;;1.90;99.90;;;;;;5062185;28;20126;-68
2023/12/27 01:24:26;;;;;;;312.85;16.17;;;1.90;99.90;;;;;;5058701;28;20487;-68
2023/12/27 01:26:52;;;;;;;106.57;8.02;;;1.90;99.90;;;;;;5075303;28;20036;-68
2023/12/27 01:29:18;;;;;;;111.88;7.30;;;1.80;99.90;;;;;;5076792;28;20037;-68
2023/12/27 01:31:43;;;;;;;191.52;9.70;;;1.80;99.90;;;;;;5060968;28;20368;-67
2023/12/27 01:34:09;;;;;;;23.70;5.13;;;1.70;99.90;;;;;;5056859;28;20198;-67
2023/12/27 01:36:35;;;;;;;80.95;6.10;;;1.60;99.90;;;;;;5082591;28;20040;-68
2023/12/27 01:39:01;;;;;;;75.90;5.70;;;1.60;99.90;;;;;;5079598;28;20039;-68
2023/12/27 01:41:26;;;;;;;111.20;6.68;;;1.60;99.90;;;;;;5061559;28;20536;-67
2023/12/27 01:43:52;;;;;;;64.90;5.65;;;1.50;99.90;;;;;;5082623;28;20040;-68
2023/12/27 01:46:18;;;;;;;70.13;4.95;;;1.40;99.90;;;;;;5079955;28;20477;-68
2023/12/27 01:48:44;;;;;;;79.93;5.47;;;1.40;99.90;;;;;;5082193;28;20046;-71
2023/12/27 01:51:12;;;;;;;152.30;7.53;;;1.40;99.90;;;;;;5074084;28;20024;-68
2023/12/27 01:53:38;;;;;;;98.72;7.00;;;1.30;99.90;;;;;;5083433;28;20054;-68
2023/12/27 01:56:05;;;;;;;92.80;5.45;;;1.40;99.90;;;;;;5085212;28;20050;-69
2023/12/27 01:58:32;;;;;;;56.05;4.25;;;1.50;99.90;;;;;;5093899;28;20520;-68
2023/12/27 02:00:58;;;;;;;102.18;8.45;;;1.60;99.90;;;;;;5096784;28;20442;-69
2023/12/27 02:03:24;;;;;;;81.50;6.20;;;1.60;99.90;;;;;;5096634;28;20059;-68
2023/12/27 02:05:51;;;;;;;62.00;4.88;;;1.60;99.90;;;;;;5058401;28;20106;-68
2023/12/27 02:08:18;;;;;;;133.93;8.13;;;1.60;99.90;;;;;;5083250;28;20044;-69
2023/12/27 02:10:43;;;;;;;116.05;7.95;;;1.60;99.90;;;;;;5091607;28;20494;-68
2023/12/27 02:13:09;;;;;;;102.88;6.35;;;1.60;99.90;;;;;;5078608;28;20097;-69
2023/12/27 02:15:36;;;;;;;128.52;8.52;;;1.60;99.90;;;;;;5090291;28;20044;-68
2023/12/27 02:18:04;;;;;;;82.63;5.78;;;1.70;99.90;;;;;;5090371;28;20049;-67
2023/12/27 02:20:30;;;;;;;72.28;5.65;;;1.70;99.90;;;;;;5096540;28;20097;-67
2023/12/27 02:22:57;;;;;;;27.88;4.55;;;1.60;99.90;;;;;;5092879;28;20036;-69
2023/12/27 02:25:23;;;;;;;51.00;6.28;;;1.60;99.90;;;;;;5071919;28;20032;-69
2023/12/27 02:27:49;;;;;;;142.40;7.75;;;1.60;99.90;;;;;;5096558;28;20032;-68
2023/12/27 02:30:19;;;;;;;89.53;6.00;;;1.50;99.90;;;;;;5071941;28;20036;-69
2023/12/27 02:32:46;;;;;;;29.05;4.03;;;1.50;99.90;;;;;;5071101;28;20035;-69
2023/12/27 02:35:11;;;;;;;65.50;5.57;;;1.50;99.90;;;;;;5078284;28;20048;-69
2023/12/27 02:37:37;;;;;;;114.85;6.57;;;1.40;99.90;;;;;;5074339;28;20036;-69
2023/12/27 02:40:03;;;;;;;85.38;5.55;;;1.40;99.90;;;;;;5091279;28;20051;-68
2023/12/27 02:42:29;;;;;;;254.48;13.55;;;1.40;99.90;;;;;;5077885;28;20119;-68
2023/12/27 02:44:55;;;;;;;181.15;9.55;;;1.30;99.90;;;;;;5093957;28;20047;-69
2023/12/27 02:47:20;;;;;;;41.85;5.75;;;1.40;99.90;;;;;;5092075;28;20051;-68
2023/12/27 02:49:46;;;;;;;98.15;6.88;;;1.40;99.90;;;;;;5096613;28;20032;-68
2023/12/27 02:52:11;;;;;;;102.70;5.82;;;1.40;99.90;;;;;;5078522;28;20059;-67
2023/12/27 02:54:37;;;;;;;123.40;8.60;;;1.20;99.90;;;;;;5071699;28;20024;-67
2023/12/27 02:57:03;;;;;;;45.55;5.70;;;1.10;99.90;;;;;;5087857;28;20079;-67
2023/12/27 02:59:28;;;;;;;57.42;5.25;;;1.20;99.90;;;;;;5077713;28;20483;-67
2023/12/27 03:01:54;;;;;;;100.97;6.45;;;1.20;99.90;;;;;;5091954;28;20036;-69
2023/12/27 03:04:19;;;;;;;87.10;5.15;;;1.30;99.90;;;;;;5085376;28;20503;-68
2023/12/27 03:06:45;;;;;;;69.97;5.30;;;1.30;99.90;;;;;;5074882;28;20044;-68
2023/12/27 03:09:10;;;;;;;69.60;6.55;;;1.40;99.90;;;;;;5075325;28;20035;-69
2023/12/27 03:11:36;;;;;;;54.92;5.00;;;1.30;99.90;;;;;;5085040;28;20028;-68
2023/12/27 03:14:02;;;;;;;38.47;5.38;;;1.30;99.90;;;;;;5083110;28;20530;-68
2023/12/27 03:16:28;;;;;;;47.20;5.30;;;1.40;99.90;;;;;;5072993;28;20124;-68
2023/12/27 03:18:54;;;;;;;38.95;4.35;;;1.40;99.90;;;;;;5085960;28;20045;-68
2023/12/27 03:21:19;;;;;;;41.25;4.82;;;1.40;99.90;;;;;;5062684;28;20088;-68
2023/12/27 03:23:48;;;;;;;88.07;8.23;;;1.30;99.90;;;;;;5074385;28;20496;-67
2023/12/27 03:26:14;;;;;;;51.88;7.07;;;1.30;99.90;;;;;;5093084;28;20537;-68
2023/12/27 03:28:39;;;;;;;113.13;8.18;;;1.30;99.90;;;;;;5084589;28;20039;-67
2023/12/27 03:31:06;;;;;;;102.60;6.18;;;1.30;99.90;;;;;;5090092;28;20484;-68
2023/12/27 03:33:32;;;;;;;134.88;9.45;;;1.20;99.90;;;;;;5075038;28;20036;-69
2023/12/27 03:35:57;;;;;;;64.78;6.50;;;1.10;99.90;;;;;;5085307;28;20047;-68
2023/12/27 03:38:23;;;;;;;19.58;5.22;;;1.10;99.90;;;;;;5089243;28;20376;-68
2023/12/27 03:40:49;;;;;;;32.03;4.47;;;1.10;99.90;;;;;;5074291;28;20039;-68
2023/12/27 03:43:15;;;;;;;20.35;4.97;;;1.20;99.90;;;;;;5091752;28;20402;-67
2023/12/27 03:45:41;;;;;;;28.00;4.28;;;1.20;99.90;;;;;;5078069;28;20047;-69
2023/12/27 03:48:06;;;;;;;74.60;6.95;;;1.30;99.90;;;;;;5081987;28;20425;-68
2023/12/27 03:50:32;;;;;;;90.32;8.60;;;1.20;99.90;;;;;;5074285;28;20393;-68
2023/12/27 03:52:58;;;;;;;79.32;6.72;;;1.20;99.90;;;;;;5079868;28;20542;-68
2023/12/27 03:55:27;;;;;;;55.55;7.32;;;1.20;99.90;;;;;;5073020;28;20039;-68
2023/12/27 03:57:53;;;;;;;86.28;7.57;;;1.30;99.90;;;;;;5082067;28;20062;-68
2023/12/27 04:00:19;;;;;;;45.75;7.10;;;1.40;99.90;;;;;;5057018;28;20044;-67
2023/12/27 04:02:45;;;;;;;21.52;5.85;;;1.40;99.90;;;;;;5091624;28;20054;-67
2023/12/27 04:05:12;;;;;;;22.65;6.25;;;1.50;99.90;;;;;;5092283;28;20047;-68
2023/12/27 04:07:37;;;;;;;18.23;6.22;;;1.50;99.90;;;;;;5068373;28;20055;-68
2023/12/27 04:10:04;;;;;;;17.95;6.65;;;1.60;99.90;;;;;;5084107;28;20032;-68
2023/12/27 04:12:29;;;;;;;54.33;7.22;;;1.60;99.90;;;;;;5072571;28;20031;-69
2023/12/27 04:14:55;;;;;;;57.00;7.65;;;1.60;99.90;;;;;;5091488;28;20040;-68
2023/12/27 04:17:20;;;;;;;80.82;8.43;;;1.60;99.90;;;;;;5071547;28;20040;-68
2023/12/27 04:19:46;;;;;;;61.53;8.15;;;1.60;99.90;;;;;;5080621;28;20119;-68
2023/12/27 04:22:11;;;;;;;19.90;7.57;;;1.60;99.90;;;;;;5073700;28;20048;-68
2023/12/27 04:24:37;;;;;;;20.40;7.60;;;1.70;99.90;;;;;;5091073;28;20040;-69
2023/12/27 04:27:03;;;;;;;19.20;7.80;;;1.70;99.90;;;;;;5081369;28;20135;-68
2023/12/27 04:29:28;;;;;;;23.67;8.50;;;1.70;99.90;;;;;;5072078;28;20090;-69
2023/12/27 04:31:54;;;;;;;20.73;8.07;;;1.80;99.90;;;;;;5091497;28;20063;-68
2023/12/27 04:34:20;;;;;;;16.00;7.70;;;1.90;99.90;;;;;;5073516;28;20040;-69
2023/12/27 04:36:45;;;;;;;17.60;7.15;;;1.90;99.90;;;;;;5082621;28;20040;-69
2023/12/27 04:39:11;;;;;;;17.48;7.80;;;1.90;99.90;;;;;;5073619;28;20040;-68
2023/12/27 04:41:36;;;;;;;18.50;8.02;;;2.00;99.90;;;;;;5088005;28;20490;-67
2023/12/27 04:44:02;;;;;;;19.20;7.93;;;2.10;99.90;;;;;;5085137;28;20048;-68
2023/12/27 04:46:28;;;;;;;16.65;8.13;;;2.10;99.90;;;;;;5091108;28;20040;-69
2023/12/27 04:48:53;;;;;;;18.73;8.10;;;2.10;99.90;;;;;;5091273;28;20046;-68
2023/12/27 04:51:20;;;;;;;16.42;7.05;;;2.10;99.90;;;;;;5089407;28;20043;-68
2023/12/27 04:53:45;;;;;;;13.70;8.02;;;2.00;99.90;;;;;;5054736;28;20169;-69
2023/12/27 04:56:11;;;;;;;26.63;8.38;;;2.10;99.90;;;;;;5068629;28;20039;-68
2023/12/27 04:58:37;;;;;;;21.70;8.30;;;2.10;99.90;;;;;;5076389;28;20071;-68
2023/12/27 05:01:06;;;;;;;23.88;8.18;;;2.10;99.90;;;;;;5057543;22;20087;-68
2023/12/27 05:03:37;;;;;;;17.27;7.70;;;2.00;99.90;;;;;;5011560;28;20052;-69
2023/12/27 05:06:06;;;;;;;20.35;8.35;;;2.00;99.90;;;;;;4992682;28;20518;-69
2023/12/27 05:08:31;;;;;;;19.92;7.70;;;2.00;99.90;;;;;;5016381;28;20042;-67
2023/12/27 05:10:57;;;;;;;14.40;6.85;;;2.00;99.90;;;;;;5010599;28;20044;-68
2023/12/27 05:13:23;;;;;;;14.75;6.38;;;1.90;99.90;;;;;;5008318;28;20068;-68
2023/12/27 05:15:48;;;;;;;12.85;7.10;;;1.90;99.90;;;;;;5025231;28;20067;-68
2023/12/27 05:18:14;;;;;;;27.20;6.95;;;1.90;99.90;;;;;;4993558;28;20523;-68
2023/12/27 05:20:39;;;;;;;14.38;6.47;;;1.90;99.90;;;;;;4992743;28;20038;-68
2023/12/27 05:23:05;;;;;;;14.55;5.80;;;1.90;99.90;;;;;;5020735;28;20033;-68
2023/12/27 05:25:30;;;;;;;16.48;6.45;;;1.90;99.90;;;;;;5010254;28;20554;-68
2023/12/27 05:27:56;;;;;;;14.10;7.95;;;1.80;99.90;;;;;;5010314;28;20575;-68
2023/12/27 05:30:21;;;;;;;10.68;7.45;;;1.90;99.90;;;;;;5001583;28;20049;-71
2023/12/27 05:32:47;;;;;;;16.35;7.03;;;1.90;99.90;;;;;;5016716;28;20045;-68
2023/12/27 05:35:13;;;;;;;12.32;7.40;;;2.00;99.90;;;;;;5014549;28;20029;-67
2023/12/27 05:37:38;;;;;;;17.88;8.82;;;2.00;99.90;;;;;;4993007;28;20044;-68
2023/12/27 05:40:05;;;;;;;23.67;8.93;;;2.10;99.90;;;;;;5014290;28;20066;-68
2023/12/27 05:42:30;;;;;;;24.90;9.20;;;2.10;99.90;;;;;;5008569;28;20037;-68
2023/12/27 05:44:56;;;;;;;19.45;9.18;;;2.20;99.90;;;;;;4992324;28;20038;-69
2023/12/27 05:47:22;;;;;;;19.48;9.50;;;2.30;99.90;;;;;;4993045;28;20041;-68
2023/12/27 05:49:48;;;;;;;21.27;9.45;;;2.30;99.90;;;;;;5014279;28;20033;-68
2023/12/27 05:52:13;;;;;;;21.75;9.25;;;2.40;99.90;;;;;;5019362;28;20514;-72
2023/12/27 05:54:39;;;;;;;24.77;9.77;;;2.40;99.90;;;;;;5029789;28;20511;-68
2023/12/27 05:57:04;;;;;;;18.73;10.07;;;2.50;99.90;;;;;;5004216;28;20499;-68
2023/12/27 05:59:30;;;;;;;21.25;10.05;;;2.60;99.90;;;;;;5008138;28;20529;-68
2023/12/27 06:01:55;;;;;;;20.33;10.02;;;2.60;99.90;;;;;;5019300;28;20038;-68
2023/12/27 06:04:21;;;;;;;19.08;9.25;;;2.60;99.90;;;;;;5012147;28;20464;-68
2023/12/27 06:06:51;;;;;;;22.33;9.45;;;2.60;99.90;;;;;;5013559;28;20026;-65
2023/12/27 06:09:17;;;;;;;23.15;11.02;;;2.60;99.90;;;;;;4992475;28;20104;-66
2023/12/27 06:11:43;;;;;;;24.42;11.68;;;2.70;99.90;;;;;;5030377;28;20484;-65
2023/12/27 06:14:08;;;;;;;23.65;10.65;;;2.70;99.90;;;;;;5029988;28;20056;-66
2023/12/27 06:16:34;;;;;;;24.25;11.13;;;2.70;99.90;;;;;;4999858;28;20057;-65
2023/12/27 06:19:00;;;;;;;26.05;11.65;;;2.70;99.90;;;;;;5011833;28;20049;-66
2023/12/27 06:21:26;;;;;;;23.42;10.93;;;2.70;99.90;;;;;;4992041;28;20096;-66
2023/12/27 06:23:51;;;;;;;27.23;12.10;;;2.80;99.90;;;;;;5009554;28;20042;-66
2023/12/27 06:26:17;;;;;;;25.30;11.45;;;2.80;99.90;;;;;;5023088;28;20076;-66
2023/12/27 06:28:43;;;;;;;21.88;11.32;;;2.80;99.90;;;;;;5012251;28;20050;-66
2023/12/27 06:31:09;;;;;;;29.63;11.70;;;2.80;99.90;;;;;;4997330;28;20048;-66
2023/12/27 06:33:35;;;;;;;32.38;12.40;;;2.90;99.90;;;;;;5014311;28;20022;-67
2023/12/27 06:36:00;;;;;;;27.80;11.63;;;2.90;99.90;;;;;;5009922;28;20034;-65
2023/12/27 06:38:26;;;;;;;21.52;11.60;;;2.90;99.90;;;;;;5009997;28;20042;-66
2023/12/27 06:40:52;;;;;;;27.15;11.57;;;2.90;99.90;;;;;;5001143;28;20099;-65
2023/12/27 06:43:19;;;;;;;36.47;11.88;;;3.00;99.90;;;;;;5013388;28;20069;-65
2023/12/27 06:45:45;;;;;;;26.88;11.05;;;3.00;99.90;;;;;;5013676;28;20642;-65
2023/12/27 06:48:10;;;;;;;23.38;11.27;;;3.10;99.90;;;;;;5020288;28;20099;-65
2023/12/27 06:50:36;;;;;;;23.20;11.57;;;3.10;99.90;;;;;;4996024;28;20076;-65
2023/12/27 06:53:02;;;;;;;24.33;11.13;;;3.10;99.90;;;;;;4995507;28;20050;-65
2023/12/27 06:55:28;;;;;;;28.85;12.02;;;3.20;99.90;;;;;;4996630;28;20091;-66
2023/12/27 06:57:53;;;;;;;28.50;12.65;;;3.20;99.90;;;;;;4996583;28;20395;-65
2023/12/27 07:00:19;;;;;;;31.33;12.40;;;3.30;99.90;;;;;;5013588;28;20665;-65
2023/12/27 07:02:45;;;;;;;24.92;12.68;;;3.20;99.90;;;;;;5013219;28;20045;-66
2023/12/27 07:05:12;;;;;;;32.17;12.57;;;3.30;99.90;;;;;;4995691;28;20042;-66
2023/12/27 07:07:37;;;;;;;28.23;12.45;;;3.40;99.90;;;;;;4995604;28;20042;-66
2023/12/27 07:10:04;;;;;;;37.42;12.80;;;3.50;99.90;;;;;;5013182;28;20096;-66
2023/12/27 07:12:30;;;;;;;29.38;12.70;;;3.50;99.90;;;;;;4993011;28;20053;-65
2023/12/27 07:14:56;;;;;;;27.85;12.95;;;3.50;99.90;;;;;;5028501;28;20466;-66
2023/12/27 07:17:23;;;;;;;30.17;13.68;;;3.60;99.90;;;;;;5032590;28;20067;-66
2023/12/27 07:19:49;;;;;;;26.30;13.52;;;3.60;99.90;;;;;;5031043;28;20041;-66
2023/12/27 07:22:15;;;;;;;30.65;11.98;;;3.60;99.90;;;;;;5014222;28;20050;-67
2023/12/27 07:24:40;;;;;;;27.85;12.13;;;3.60;99.90;;;;;;5008660;28;20065;-66
2023/12/27 07:27:06;;;;;;;28.23;12.45;;;3.60;99.90;;;;;;5021548;28;20053;-65
2023/12/27 07:29:34;;;;;;;26.85;12.18;;;3.60;99.90;;;;;;5010595;28;20069;-66
2023/12/27 07:32:00;;;;;;;37.15;12.25;;;3.60;99.90;;;;;;5011853;28;20034;-65
2023/12/27 07:34:25;;;;;;;38.58;13.02;;;3.70;99.90;;;;;;5010652;28;20570;-66
2023/12/27 07:36:51;;;;;;;27.35;12.80;;;3.70;99.90;;;;;;4997287;28;20069;-67
2023/12/27 07:39:16;;;;;;;29.40;12.20;;;3.70;99.90;;;;;;5012703;28;20496;-66
2023/12/27 07:41:42;;;;;;;29.13;12.85;;;3.80;99.90;;;;;;5012843;28;20084;-64
2023/12/27 07:44:09;;;;;;;27.42;12.43;;;3.80;99.90;;;;;;4997238;28;20057;-66
2023/12/27 07:46:35;;;;;;;27.58;12.68;;;3.80;99.90;;;;;;5015377;28;20038;-66
2023/12/27 07:49:01;;;;;;;26.15;12.15;;;3.90;99.90;;;;;;5012262;28;20048;-66
2023/12/27 07:51:27;;;;;;;30.70;13.30;;;3.90;99.90;;;;;;5011787;28;20117;-65
2023/12/27 07:53:52;;;;;;;23.35;11.20;;;3.90;99.90;;;;;;5011492;28;20168;-65
2023/12/27 07:56:18;;;;;;;31.58;11.77;;;3.90;99.90;;;;;;5014863;28;20196;-65
2023/12/27 07:58:46;;;;;;;28.10;11.23;;;3.90;99.90;;;;;;5009672;28;20120;-65
2023/12/27 08:01:11;;;;;;;28.35;11.95;;;4.00;99.90;;;;;;5032511;28;20120;-66
2023/12/27 08:03:39;;;;;;;32.45;12.52;;;4.00;99.90;;;;;;4993438;28;20132;-65
2023/12/27 08:06:06;;;;;;;34.78;11.23;;;4.10;99.90;;;;;;4994430;28;20057;-66
2023/12/27 08:08:32;;;;;;;32.20;11.77;;;4.10;99.90;;;;;;4998170;28;20065;-66
2023/12/27 08:10:58;;;;;;;29.10;12.20;;;4.10;99.90;;;;;;5026052;28;20056;-66
2023/12/27 08:13:23;;;;;;;31.30;12.70;;;4.10;99.90;;;;;;5030682;28;20029;-67
2023/12/27 08:15:49;;;;;;;24.63;12.30;;;4.20;99.90;;;;;;5011378;28;20091;-65
2023/12/27 08:18:15;;;;;;;27.10;12.65;;;4.20;99.90;;;;;;4991473;28;20050;-70
2023/12/27 08:20:40;;;;;;;26.30;12.88;;;4.30;99.90;;;;;;4993446;28;20472;-66
2023/12/27 08:23:07;;;;;;;28.13;12.90;;;4.30;99.90;;;;;;5020626;28;20079;-67
2023/12/27 08:25:34;;;;;;;29.55;12.23;;;4.30;99.90;;;;;;5023235;28;20048;-66
2023/12/27 08:28:01;;;;;;;26.83;12.95;;;4.30;99.90;;;;;;5031573;28;20046;-66
2023/12/27 08:30:27;;;;;;;29.75;12.82;;;4.30;99.90;;;;;;5031879;28;20045;-65
2023/12/27 08:32:53;;;;;;;31.50;13.35;;;4.30;99.90;;;;;;4994135;28;20111;-66
2023/12/27 08:35:18;;;;;;;27.75;12.80;;;4.30;99.90;;;;;;5010476;28;20581;-66
2023/12/27 08:37:44;;;;;;;27.35;12.85;;;4.40;99.90;;;;;;4999669;28;20049;-65
2023/12/27 08:40:10;;;;;;;27.13;13.40;;;4.40;99.90;;;;;;4993786;28;20068;-65
2023/12/27 08:42:36;;;;;;;28.27;13.23;;;4.40;99.90;;;;;;5011514;28;20041;-66
2023/12/27 08:45:01;;;;;;;24.75;13.93;;;4.50;99.90;;;;;;5011760;28;20042;-66
2023/12/27 08:47:27;;;;;;;26.52;13.43;;;4.50;99.90;;;;;;5012797;28;20033;-66
2023/12/27 08:49:55;;;;;;;27.60;14.70;;;4.50;99.90;;;;;;5015011;28;20522;-66
2023/12/27 08:52:20;;;;;;;32.60;14.00;;;4.50;99.90;;;;;;5002269;28;20037;-65
2023/12/27 08:54:46;;;;;;;33.55;13.88;;;4.50;99.90;;;;;;5019937;28;20533;-65
2023/12/27 08:57:12;;;;;;;35.33;15.05;;;4.60;99.90;;;;;;5021526;28;20403;-65
2023/12/27 08:59:37;;;;;;;35.03;16.35;;;4.60;99.90;;;;;;5010443;28;20038;-66
2023/12/27 09:02:03;;;;;;;29.73;13.63;;;4.60;99.90;;;;;;5009643;28;20045;-65
2023/12/27 09:04:29;;;;;;;37.67;15.30;;;4.70;99.90;;;;;;5001067;28;20051;-66
2023/12/27 09:06:55;;;;;;;31.48;14.90;;;4.70;99.90;;;;;;5015797;28;20042;-65
2023/12/27 09:09:20;;;;;;;35.40;14.23;;;4.70;99.90;;;;;;4991187;28;20219;-66
2023/12/27 09:11:46;;;;;;;33.65;14.98;;;4.80;99.90;;;;;;5016736;28;20049;-66
2023/12/27 09:14:12;;;;;;;33.70;15.23;;;4.80;99.90;;;;;;5010684;28;20029;-66
2023/12/27 09:16:37;;;;;;;30.98;14.50;;;4.80;99.90;;;;;;5010774;28;20400;-66
2023/12/27 09:19:03;;;;;;;33.75;14.40;;;4.80;99.90;;;;;;5011637;28;20045;-65
2023/12/27 09:21:28;;;;;;;32.63;14.60;;;4.90;99.90;;;;;;5011694;28;20042;-65
2023/12/27 09:23:54;;;;;;;34.60;15.55;;;4.90;99.90;;;;;;4996558;28;20144;-65
2023/12/27 09:26:20;;;;;;;39.33;14.73;;;5.00;99.90;;;;;;5016829;28;20079;-65
2023/12/27 09:28:45;;;;;;;30.20;14.55;;;5.00;99.90;;;;;;4993253;28;20045;-68
2023/12/27 09:31:11;;;;;;;36.05;14.85;;;5.00;99.90;;;;;;5010733;28;20057;-66
2023/12/27 09:33:36;;;;;;;34.38;14.57;;;5.00;99.90;;;;;;5009417;28;20586;-65
2023/12/27 09:36:02;;;;;;;37.13;15.20;;;5.00;99.90;;;;;;5013062;28;20072;-66
2023/12/27 09:38:28;;;;;;;31.35;14.40;;;5.10;99.90;;;;;;5020177;28;20033;-65
2023/12/27 09:40:54;;;;;;;28.73;14.93;;;5.10;99.90;;;;;;5020801;28;20042;-66
2023/12/27 09:43:24;;;;;;;33.95;15.25;;;5.10;99.90;;;;;;5003786;28;20046;-66
2023/12/27 09:45:51;;;;;;;31.90;14.63;;;5.10;99.90;;;;;;5017182;28;20063;-67
2023/12/27 09:48:17;;;;;;;39.78;16.48;;;5.10;99.90;;;;;;5018993;28;20108;-66
2023/12/27 09:50:43;;;;;;;35.20;15.10;;;5.20;99.90;;;;;;5025257;28;20075;-65
2023/12/27 09:53:12;;;;;;;35.80;15.27;;;5.20;99.90;;;;;;5006780;28;20030;-65
2023/12/27 09:55:38;;;;;;;32.90;15.57;;;5.20;99.90;;;;;;5018876;28;20472;-65
2023/12/27 09:58:04;;;;;;;36.00;15.40;;;5.20;99.90;;;;;;5019767;28;20045;-66
2023/12/27 10:00:32;;;;;;;34.13;15.82;;;5.30;99.90;;;;;;5018118;28;20041;-66
2023/12/27 10:02:58;;;;;;;33.80;15.43;;;5.30;99.90;;;;;;5009629;28;20499;-65
2023/12/27 10:05:33;;;;;;;39.70;15.63;;;5.30;99.90;;;;;;5010564;28;20041;-67
2023/12/27 10:08:00;;;;;;;29.15;15.23;;;5.30;99.90;;;;;;5010409;28;20041;-65
2023/12/27 10:10:26;;;;;;;28.05;14.50;;;5.40;99.90;;;;;;5021946;28;20077;-65
2023/12/27 10:12:54;;;;;;;41.22;15.70;;;5.40;99.90;;;;;;5021056;28;20037;-67
2023/12/27 10:15:20;;;;;;;36.30;14.60;;;5.40;99.90;;;;;;5021970;28;20137;-66
2023/12/27 10:17:45;;;;;;;36.10;15.38;;;5.40;99.90;;;;;;5020134;28;20112;-65
2023/12/27 10:20:30;;;;;;;35.40;14.45;;;5.40;99.90;;;;;;4995849;28;20492;-65
2023/12/27 10:22:55;;;;;;;32.92;14.45;;;5.50;99.90;;;;;;4995427;28;20095;-65
2023/12/27 10:25:21;;;;;;;30.67;15.35;;;5.50;99.90;;;;;;5000820;28;20045;-66
2023/12/27 10:27:47;;;;;;;32.78;14.20;;;5.50;99.90;;;;;;5021743;28;20515;-65
2023/12/27 10:30:18;;;;;;;36.33;14.88;;;5.50;99.90;;;;;;5032913;28;20119;-66
2023/12/27 10:32:55;;;;;;;30.65;14.45;;;5.50;99.90;;;;;;5005508;28;20038;-65
2023/12/27 10:35:20;;;;;;;37.03;13.55;;;5.50;99.90;;;;;;5013743;28;20044;-66
2023/12/27 10:37:46;;;;;;;35.85;15.48;;;5.50;99.90;;;;;;5015893;28;20041;-65
2023/12/27 10:40:12;;;;;;;36.58;14.10;;;5.50;99.90;;;;;;5034065;28;20142;-65
2023/12/27 10:42:37;;;;;;;32.22;14.80;;;5.60;99.90;;;;;;5020952;28;20033;-64
2023/12/27 10:45:03;;;;;;;31.83;14.73;;;5.60;99.90;;;;;;5018404;28;20100;-65
2023/12/27 10:47:30;;;;;;;35.05;14.13;;;5.60;99.90;;;;;;5000981;28;20033;-65
2023/12/27 10:49:58;;;;;;;37.83;14.65;;;5.60;99.90;;;;;;5014495;28;20145;-67
2023/12/27 10:52:25;;;;;;;33.55;14.45;;;5.60;99.90;;;;;;4999676;28;20042;-65
2023/12/27 10:54:54;;;;;;;34.30;15.15;;;5.70;99.90;;;;;;5023539;28;20506;-66
2023/12/27 10:57:23;;;;;;;35.28;14.82;;;5.70;99.90;;;;;;5023989;28;20049;-66
2023/12/27 10:59:49;;;;;;;27.27;14.40;;;5.70;99.90;;;;;;5021021;28;20030;-65
2023/12/27 11:02:17;;;;;;;36.78;14.95;;;5.70;99.90;;;;;;5059068;22;20040;-65
2023/12/27 11:04:45;;;;;;;36.78;14.13;;;5.80;99.90;;;;;;5052822;28;20068;-65
2023/12/27 11:07:12;;;;;;;33.92;14.68;;;5.70;99.90;;;;;;5046407;28;20128;-65
2023/12/27 11:09:41;;;;;;;29.83;13.65;;;5.80;99.90;;;;;;5048738;28;20028;-65
2023/12/27 11:12:09;;;;;;;31.42;13.73;;;5.80;99.90;;;;;;5031175;28;20064;-65
2023/12/27 11:14:36;;;;;;;32.67;14.25;;;5.80;99.90;;;;;;5032651;28;20044;-65
2023/12/27 11:17:05;;;;;;;34.45;14.35;;;5.80;99.90;;;;;;5051040;28;20037;-66
2023/12/27 11:19:32;;;;;;;31.77;14.07;;;5.70;99.90;;;;;;5047831;28;20033;-66
2023/12/27 11:21:57;;;;;;;27.67;13.55;;;5.70;99.90;;;;;;5043304;28;20060;-65
2023/12/27 11:24:23;;;;;;;31.65;14.15;;;5.80;99.90;;;;;;5045721;28;20033;-65
2023/12/27 11:26:58;;;;;;;32.85;14.80;;;5.80;99.90;;;;;;5034607;28;20041;-66
2023/12/27 11:29:25;;;;;;;35.10;13.20;;;5.80;99.90;;;;;;5035291;28;20060;-66
2023/12/27 11:31:53;;;;;;;34.17;13.85;;;5.80;99.90;;;;;;5031843;28;20045;-66
2023/12/27 11:34:18;;;;;;;29.65;12.45;;;5.80;99.90;;;;;;5037752;28;20045;-65
2023/12/27 11:36:50;;;;;;;29.15;12.88;;;5.80;99.90;;;;;;5049598;28;20033;-66
2023/12/27 11:39:20;;;;;;;30.02;13.70;;;5.90;99.90;;;;;;5047178;28;20040;-66
2023/12/27 11:41:47;;;;;;;30.38;12.90;;;5.90;99.90;;;;;;5049888;28;20090;-65
2023/12/27 11:44:17;;;;;;;32.53;13.35;;;6.00;99.90;;;;;;5033821;28;20399;-66
2023/12/27 11:46:43;;;;;;;26.15;13.07;;;6.00;99.90;;;;;;5047797;28;20123;-66
2023/12/27 11:49:17;;;;;;;31.60;13.75;;;6.00;99.90;;;;;;5033914;28;20099;-66
2023/12/27 11:51:43;;;;;;;28.17;12.85;;;6.00;99.90;;;;;;5046926;28;20467;-66
2023/12/27 11:54:19;;;;;;;28.02;12.07;;;6.00;99.90;;;;;;5049814;28;20530;-65
2023/12/27 11:56:45;;;;;;;24.15;11.52;;;6.10;99.90;;;;;;5027312;28;20041;-66
2023/12/27 11:59:11;;;;;;;24.83;12.18;;;6.10;99.90;;;;;;5048046;28;20047;-65
2023/12/27 12:01:39;;;;;;;30.33;13.75;;;6.10;99.90;;;;;;5032687;28;20457;-66
2023/12/27 12:04:08;;;;;;;24.92;12.40;;;6.10;99.90;;;;;;5043471;28;20045;-66
2023/12/27 12:07:06;;;;;;;33.03;13.50;;;6.10;99.90;;;;;;5050036;28;20045;-64
2023/12/27 12:09:58;;;;;;;27.92;12.80;;;6.10;99.90;;;;;;5032363;28;20035;-65
2023/12/27 12:12:24;;;;;;;27.92;13.15;;;6.10;99.90;;;;;;5036698;28;20048;-64
2023/12/27 12:14:53;;;;;;;29.17;12.88;;;6.10;99.90;;;;;;5047536;28;20045;-63
2023/12/27 12:17:20;;;;;;;27.05;13.85;;;6.20;99.90;;;;;;5048505;28;20392;-65
2023/12/27 12:19:47;;;;;;;24.70;13.38;;;6.20;99.90;;;;;;5026350;28;20123;-66
2023/12/27 12:22:15;;;;;;;28.45;12.68;;;6.30;99.90;;;;;;5050453;28;20037;-65
2023/12/27 12:24:42;;;;;;;25.58;12.35;;;6.30;99.90;;;;;;5033692;28;20041;-65
2023/12/27 12:27:07;;;;;;;25.42;12.60;;;6.40;99.90;;;;;;5050808;28;20041;-65
2023/12/27 12:29:33;;;;;;;25.98;13.77;;;6.40;99.90;;;;;;5042331;28;20047;-66
2023/12/27 12:31:59;;;;;;;26.50;13.82;;;6.50;99.90;;;;;;5044930;28;20043;-65
2023/12/27 12:34:25;;;;;;;27.10;14.00;;;6.50;99.90;;;;;;5050124;28;20033;-64
2023/12/27 12:36:52;;;;;;;28.50;13.27;;;6.60;99.90;;;;;;5050987;28;20048;-65